createdAt,value
2023-05-16T00:02:11.148Z,10.64
2023-05-16T00:04:38.644Z,10.66
2023-05-16T00:07:05.709Z,10.67
2023-05-16T00:09:32.756Z,10.67
2023-05-16T00:12:00.087Z,10.67
2023-05-16T00:14:28.078Z,10.68
2023-05-16T00:16:58.104Z,10.70
2023-05-16T00:19:26.335Z,10.70
2023-05-16T00:21:53.322Z,10.69
2023-05-16T00:24:20.265Z,10.69
2023-05-16T00:26:47.225Z,10.70
2023-05-16T00:29:14.307Z,10.73
2023-05-16T00:31:41.476Z,10.73
2023-05-16T00:34:08.690Z,10.74
2023-05-16T00:36:36.029Z,10.75
2023-05-16T00:39:03.951Z,10.74
2023-05-16T00:41:31.387Z,10.75
2023-05-16T00:43:58.536Z,10.74
2023-05-16T00:46:25.558Z,10.72
2023-05-16T00:48:52.787Z,10.73
2023-05-16T00:51:20.095Z,10.73
2023-05-16T00:53:48.142Z,10.74
2023-05-16T00:56:16.452Z,10.75
2023-05-16T00:58:43.880Z,10.76
2023-05-16T01:01:11.373Z,10.76
2023-05-16T01:03:39.139Z,10.76
2023-05-16T01:06:06.427Z,10.76
2023-05-16T01:08:33.665Z,10.76
2023-05-16T01:11:19.629Z,10.76
2023-05-16T01:14:21.127Z,10.77
2023-05-16T01:16:56.924Z,10.78
2023-05-16T01:19:30.719Z,10.78
2023-05-16T01:22:16.040Z,10.78
2023-05-16T01:25:17.493Z,10.78
2023-05-16T01:27:45.453Z,10.77
2023-05-16T01:30:17.706Z,10.78
2023-05-16T01:32:45.082Z,10.76
2023-05-16T01:35:15.745Z,10.72
2023-05-16T01:37:47.577Z,10.71
2023-05-16T01:40:30.596Z,10.68
2023-05-16T01:43:03.969Z,10.67
2023-05-16T01:45:34.601Z,10.66
2023-05-16T01:48:04.883Z,10.67
2023-05-16T01:50:36.452Z,10.66
2023-05-16T01:53:11.861Z,10.66
2023-05-16T01:55:52.133Z,10.66
2023-05-16T01:58:23.203Z,10.67
2023-05-16T02:00:53.399Z,10.71
2023-05-16T02:03:20.435Z,10.72
2023-05-16T02:05:47.534Z,10.71
2023-05-16T02:08:14.666Z,10.69
2023-05-16T02:10:41.690Z,10.64
2023-05-16T02:13:09.022Z,10.60
2023-05-16T02:15:36.116Z,10.55
2023-05-16T02:18:03.176Z,10.54
2023-05-16T02:20:30.416Z,10.52
2023-05-16T02:22:57.391Z,10.49
2023-05-16T02:25:24.708Z,10.44
2023-05-16T02:27:51.968Z,10.40
2023-05-16T02:30:19.127Z,10.38
2023-05-16T02:32:46.202Z,10.35
2023-05-16T02:35:13.359Z,10.32
2023-05-16T02:37:41.246Z,10.30
2023-05-16T02:40:08.896Z,10.29
2023-05-16T02:42:35.939Z,10.27
2023-05-16T02:45:03.091Z,10.24
2023-05-16T02:47:30.487Z,10.20
2023-05-16T02:49:57.625Z,10.18
2023-05-16T02:52:24.767Z,10.15
2023-05-16T02:55:04.754Z,10.11
2023-05-16T02:57:38.946Z,10.08
2023-05-16T03:00:06.998Z,10.06
2023-05-16T03:02:34.229Z,10.04
2023-05-16T03:05:01.540Z,10.03
2023-05-16T03:07:28.561Z,10.02
2023-05-16T03:09:55.880Z,9.98
2023-05-16T03:12:22.859Z,9.96
2023-05-16T03:14:51.342Z,9.96
2023-05-16T03:17:18.336Z,9.95
2023-05-16T03:19:45.513Z,9.96
2023-05-16T03:22:12.958Z,9.95
2023-05-16T03:24:40.026Z,9.93
2023-05-16T03:27:07.701Z,9.91
2023-05-16T03:29:34.857Z,9.89
2023-05-16T03:32:02.179Z,9.90
2023-05-16T03:34:29.286Z,9.91
2023-05-16T03:36:57.129Z,9.92
2023-05-16T03:39:24.091Z,9.92
2023-05-16T03:41:51.908Z,9.94
2023-05-16T03:44:19.039Z,9.94
2023-05-16T03:46:46.060Z,9.94
2023-05-16T03:49:13.028Z,9.93
2023-05-16T03:51:40.013Z,9.96
2023-05-16T03:54:06.985Z,9.98
2023-05-16T03:56:34.048Z,10.01
2023-05-16T03:59:01.026Z,10.03
2023-05-16T04:01:29.308Z,10.05
2023-05-16T04:03:56.326Z,10.07
2023-05-16T04:06:23.363Z,10.09
2023-05-16T04:08:50.549Z,10.12
2023-05-16T04:11:17.726Z,10.14
2023-05-16T04:13:44.966Z,10.19
2023-05-16T04:16:12.629Z,10.23
2023-05-16T04:18:39.673Z,10.28
2023-05-16T04:21:07.385Z,10.34
2023-05-16T04:23:34.530Z,10.37
2023-05-16T04:26:04.330Z,10.40
2023-05-16T04:28:31.542Z,10.45
2023-05-16T04:30:58.699Z,10.51
2023-05-16T04:33:25.862Z,10.57
2023-05-16T04:35:54.524Z,10.62
2023-05-16T04:38:22.238Z,10.68
2023-05-16T04:40:52.626Z,10.74
2023-05-16T04:43:20.023Z,10.76
2023-05-16T04:45:47.284Z,10.80
2023-05-16T04:48:15.062Z,10.86
2023-05-16T04:50:42.140Z,10.89
2023-05-16T04:53:09.664Z,10.95
2023-05-16T04:55:36.976Z,11.00
2023-05-16T04:58:04.088Z,11.05
2023-05-16T05:00:31.689Z,11.11
2023-05-16T05:02:59.725Z,11.18
2023-05-16T05:05:28.281Z,11.26
2023-05-16T05:07:59.035Z,11.33
2023-05-16T05:10:27.489Z,11.38
2023-05-16T05:12:56.351Z,11.45
2023-05-16T05:15:26.471Z,11.50
2023-05-16T05:17:53.961Z,11.55
2023-05-16T05:20:21.382Z,11.61
2023-05-16T05:22:48.473Z,11.69
2023-05-16T05:25:15.856Z,11.76
2023-05-16T05:27:45.889Z,11.83
2023-05-16T05:30:15.674Z,11.89
2023-05-16T06:07:07.726Z,12.90
2023-05-16T06:21:37.007Z,12.89
2023-05-16T06:31:47.190Z,12.96
2023-05-16T06:34:14.314Z,12.98
2023-05-16T06:36:41.615Z,12.99
2023-05-16T06:39:08.577Z,13.04
2023-05-16T06:41:36.436Z,13.09
2023-05-16T06:53:20.091Z,13.02
2023-05-16T06:56:05.863Z,13.01
2023-05-16T07:04:17.328Z,13.06
2023-05-16T07:08:30.655Z,13.15
2023-05-16T07:11:12.220Z,13.20
2023-05-16T07:13:39.396Z,13.14
2023-05-16T07:16:08.173Z,13.08
2023-05-16T07:18:35.782Z,13.04
2023-05-16T07:21:03.073Z,13.04
2023-05-16T07:23:30.640Z,13.00
2023-05-16T07:25:58.964Z,12.95
2023-05-16T07:28:26.620Z,12.88
2023-05-16T07:30:54.441Z,12.86
2023-05-16T07:33:21.730Z,12.81
2023-05-16T07:35:49.757Z,12.82
2023-05-16T07:38:16.912Z,12.84
2023-05-16T07:40:44.164Z,12.87
2023-05-16T07:43:11.374Z,12.96
2023-05-16T07:45:38.788Z,13.05
2023-05-16T07:48:06.322Z,13.06
2023-05-16T07:50:33.685Z,13.13
2023-05-16T07:53:01.401Z,13.30
2023-05-16T07:55:28.851Z,13.47
2023-05-16T07:57:56.461Z,13.53
2023-05-16T08:00:23.863Z,13.56
2023-05-16T08:02:51.638Z,13.53
2023-05-16T08:05:18.984Z,13.51
2023-05-16T08:07:46.302Z,13.54
2023-05-16T08:10:13.715Z,13.63
2023-05-16T08:12:41.193Z,13.78
2023-05-16T08:15:09.305Z,13.83
2023-05-16T08:17:36.950Z,13.81
2023-05-16T08:20:05.565Z,13.82
2023-05-16T08:22:33.368Z,13.85
2023-05-16T08:25:00.726Z,13.86
2023-05-16T08:27:28.716Z,13.82
2023-05-16T08:29:55.806Z,13.82
2023-05-16T08:32:25.344Z,13.89
2023-05-16T08:34:52.506Z,13.94
2023-05-16T08:37:19.722Z,13.97
2023-05-16T08:39:46.867Z,13.93
2023-05-16T08:42:14.772Z,13.91
2023-05-16T08:44:42.167Z,13.92
2023-05-16T08:47:18.678Z,13.96
2023-05-16T08:50:11.867Z,13.96
2023-05-16T08:56:29.366Z,14.24
2023-05-16T09:08:09.859Z,14.61
2023-05-16T09:15:58.257Z,14.63
2023-05-16T09:22:58.227Z,14.46
2023-05-16T09:25:31.752Z,14.48
2023-05-16T09:28:01.740Z,14.58
2023-05-16T09:30:32.325Z,14.65
2023-05-16T09:32:59.722Z,14.74
2023-05-16T09:35:43.266Z,14.78
2023-05-16T09:38:17.751Z,14.81
2023-05-16T09:40:46.454Z,14.81
2023-05-16T09:43:18.019Z,14.82
2023-05-16T09:45:53.944Z,14.93
2023-05-16T09:48:23.428Z,15.15
2023-05-16T09:50:54.376Z,15.29
2023-05-16T09:53:30.606Z,15.52
2023-05-16T09:56:02.060Z,15.88
2023-05-16T09:58:38.777Z,16.11
2023-05-16T10:01:13.136Z,16.27
2023-05-16T10:03:42.288Z,16.32
2023-05-16T10:06:12.572Z,16.20
2023-05-16T10:08:42.548Z,16.01
2023-05-16T10:11:10.906Z,15.79
2023-05-16T10:13:38.807Z,15.66
2023-05-16T10:16:10.989Z,15.56
2023-05-16T10:18:39.772Z,15.45
2023-05-16T10:21:15.658Z,15.37
2023-05-16T10:23:47.277Z,15.36
2023-05-16T10:26:17.103Z,15.34
2023-05-16T10:28:45.183Z,15.33
2023-05-16T10:31:14.292Z,15.33
2023-05-16T10:33:41.962Z,15.42
2023-05-16T10:36:10.561Z,15.49
2023-05-16T10:38:39.092Z,15.48
2023-05-16T10:41:08.373Z,15.38
2023-05-16T10:43:36.441Z,15.31
2023-05-16T10:46:07.167Z,15.33
2023-05-16T10:48:36.611Z,15.41
2023-05-16T10:51:24.442Z,15.42
2023-05-16T10:53:52.829Z,15.52
2023-05-16T10:56:24.796Z,15.62
2023-05-16T10:58:54.162Z,15.74
2023-05-16T11:01:28.937Z,16.05
2023-05-16T11:03:59.595Z,16.25
2023-05-16T11:06:28.364Z,16.22
2023-05-16T11:09:11.431Z,16.18
2023-05-16T11:11:46.324Z,16.20
2023-05-16T11:14:22.872Z,16.17
2023-05-16T11:17:15.433Z,16.10
2023-05-16T11:19:45.181Z,16.11
2023-05-16T11:22:41.993Z,16.13
2023-05-16T11:25:10.708Z,16.13
2023-05-16T11:27:47.026Z,16.08
2023-05-16T11:30:17.360Z,16.07
2023-05-16T11:32:46.480Z,16.19
2023-05-16T11:35:16.472Z,16.25
2023-05-16T11:37:46.512Z,16.23
2023-05-16T11:40:16.805Z,16.30
2023-05-16T11:42:47.501Z,16.42
2023-05-16T11:45:17.002Z,16.55
2023-05-16T11:47:45.932Z,16.67
2023-05-16T11:50:21.960Z,16.81
2023-05-16T11:52:54.040Z,16.87
2023-05-16T11:55:36.807Z,16.81
2023-05-16T11:58:08.456Z,16.69
2023-05-16T12:00:35.745Z,16.69
2023-05-16T12:03:05.031Z,16.79
2023-05-16T12:05:34.336Z,16.83
2023-05-16T12:08:04.337Z,16.96
2023-05-16T12:10:36.208Z,17.30
2023-05-16T12:13:03.979Z,17.69
2023-05-16T12:15:31.724Z,18.10
2023-05-16T12:17:59.320Z,18.37
2023-05-16T12:20:26.673Z,18.39
2023-05-16T12:22:57.745Z,18.41
2023-05-16T12:25:32.738Z,18.53
2023-05-16T12:28:03.914Z,18.67
2023-05-16T12:30:32.674Z,18.82
2023-05-16T12:33:08.251Z,18.71
2023-05-16T12:35:38.766Z,18.53
2023-05-16T12:38:08.429Z,18.48
2023-05-16T12:40:41.480Z,18.44
2023-05-16T12:43:22.915Z,18.35
2023-05-16T12:45:55.031Z,18.25
2023-05-16T12:48:23.871Z,18.23
2023-05-16T12:50:51.080Z,18.15
2023-05-16T12:53:19.097Z,18.04
2023-05-16T12:55:46.583Z,17.90
2023-05-16T12:58:14.125Z,17.81
2023-05-16T13:00:41.409Z,17.74
2023-05-16T13:03:10.106Z,17.68
2023-05-16T13:05:37.438Z,17.68
2023-05-16T13:08:04.965Z,17.73
2023-05-16T13:10:32.062Z,17.81
2023-05-16T13:12:59.769Z,17.92
2023-05-16T13:15:27.442Z,18.01
2023-05-16T13:17:55.065Z,18.06
2023-05-16T13:20:22.443Z,18.23
2023-05-16T13:22:49.900Z,18.26
2023-05-16T13:25:17.657Z,18.16
2023-05-16T13:27:44.813Z,18.05
2023-05-16T13:30:12.244Z,17.97
2023-05-16T13:32:39.576Z,17.89
2023-05-16T13:35:07.309Z,17.80
2023-05-16T13:37:34.874Z,17.69
2023-05-16T13:40:02.312Z,17.60
2023-05-16T13:42:29.525Z,17.46
2023-05-16T13:44:56.766Z,17.33
2023-05-16T13:47:23.836Z,17.28
2023-05-16T13:49:51.194Z,17.31
2023-05-16T13:52:18.596Z,17.33
2023-05-16T13:54:46.144Z,17.42
2023-05-16T13:57:13.321Z,17.57
2023-05-16T14:02:10.977Z,17.90
2023-05-16T14:04:38.572Z,17.97
2023-05-16T14:07:05.683Z,18.05
2023-05-16T14:09:34.772Z,18.09
2023-05-16T14:12:04.718Z,18.09
2023-05-16T14:14:31.955Z,18.13
2023-05-16T14:16:59.300Z,18.19
2023-05-16T14:19:26.776Z,18.22
2023-05-16T14:21:54.703Z,18.24
2023-05-16T14:24:22.375Z,18.37
2023-05-16T14:26:56.972Z,18.44
2023-05-16T14:29:25.009Z,18.49
2023-05-16T14:31:52.937Z,18.50
2023-05-16T14:34:21.937Z,18.50
2023-05-16T14:36:49.230Z,18.46
2023-05-16T14:39:16.378Z,18.40
2023-05-16T14:41:43.519Z,18.38
2023-05-16T14:44:10.659Z,18.33
2023-05-16T14:46:42.077Z,18.25
2023-05-16T14:49:09.758Z,18.15
2023-05-16T14:51:42.205Z,18.08
2023-05-16T14:54:22.134Z,18.11
2023-05-16T14:56:50.228Z,18.15
2023-05-16T14:59:17.390Z,18.18
2023-05-16T15:01:44.911Z,18.22
2023-05-16T15:04:12.155Z,18.22
2023-05-16T15:06:42.549Z,18.21
2023-05-16T15:09:11.668Z,18.19
2023-05-16T15:11:41.747Z,18.14
2023-05-16T15:14:12.415Z,18.13
2023-05-16T15:16:39.771Z,18.16
2023-05-16T15:19:09.578Z,18.15
2023-05-16T15:21:37.100Z,18.07
2023-05-16T15:24:04.681Z,18.05
2023-05-16T15:26:33.933Z,18.03
2023-05-16T15:29:05.788Z,18.00
2023-05-16T15:31:33.305Z,18.01
2023-05-16T15:34:01.204Z,17.98
2023-05-16T15:36:31.632Z,17.90
2023-05-16T15:39:04.900Z,17.86
2023-05-16T15:41:56.940Z,17.86
2023-05-16T15:44:23.889Z,17.86
2023-05-16T15:46:51.266Z,17.85
2023-05-16T15:49:21.926Z,17.84
2023-05-16T15:51:50.868Z,17.82
2023-05-16T15:54:18.716Z,17.75
2023-05-16T15:56:48.764Z,17.67
2023-05-16T15:59:17.040Z,17.62
2023-05-16T16:01:48.880Z,17.60
2023-05-16T16:04:23.373Z,17.54
2023-05-16T16:06:54.428Z,17.52
2023-05-16T16:09:21.659Z,17.50
2023-05-16T16:11:50.162Z,17.46
2023-05-16T16:14:19.522Z,17.44
2023-05-16T16:16:47.511Z,17.43
2023-05-16T16:19:15.294Z,17.41
2023-05-16T16:21:45.355Z,17.41
2023-05-16T16:24:15.673Z,17.39
2023-05-16T16:26:43.376Z,17.39
2023-05-16T16:29:14.908Z,17.41
2023-05-16T16:31:41.988Z,17.40
2023-05-16T16:34:09.559Z,17.38
2023-05-16T16:36:39.035Z,17.38
2023-05-16T16:39:07.532Z,17.35
2023-05-16T16:41:34.677Z,17.29
2023-05-16T16:44:02.213Z,17.26
2023-05-16T16:46:32.962Z,17.22
2023-05-16T16:49:01.588Z,17.14
2023-05-16T16:51:35.532Z,17.08
2023-05-16T16:54:05.441Z,17.04
2023-05-16T16:56:36.012Z,17.05
2023-05-16T16:59:03.240Z,17.04
2023-05-16T17:02:08.378Z,17.04
2023-05-16T17:05:23.462Z,17.04
2023-05-16T17:08:42.945Z,16.99
2023-05-16T17:12:48.595Z,16.93
2023-05-16T17:16:35.761Z,16.89
2023-05-16T17:20:03.685Z,16.85
2023-05-16T17:26:43.637Z,16.82
2023-05-16T17:29:16.812Z,16.81
2023-05-16T17:32:02.164Z,16.78
2023-05-16T17:34:32.965Z,16.76
2023-05-16T17:37:06.570Z,16.73
2023-05-16T17:39:35.078Z,16.72
2023-05-16T17:42:05.133Z,16.67
2023-05-16T17:44:32.629Z,16.61
2023-05-16T17:46:59.780Z,16.55
2023-05-16T17:49:29.999Z,16.49
2023-05-16T17:51:57.912Z,16.45
2023-05-16T17:54:26.802Z,16.39
2023-05-16T17:56:55.726Z,16.34
2023-05-16T17:59:22.854Z,16.28
2023-05-16T18:01:49.951Z,16.25
2023-05-16T18:04:19.347Z,16.19
2023-05-16T18:06:48.001Z,16.14
2023-05-16T18:09:15.137Z,16.11
2023-05-16T18:11:42.234Z,16.07
2023-05-16T18:14:09.735Z,16.04
2023-05-16T18:16:36.811Z,16.01
2023-05-16T18:19:05.108Z,15.97
2023-05-16T18:22:32.315Z,15.92
2023-05-16T18:24:57.262Z,15.90
2023-05-16T18:27:24.324Z,15.89
2023-05-16T18:29:51.398Z,15.87
2023-05-16T18:32:18.587Z,15.87
2023-05-16T18:34:45.533Z,15.88
2023-05-16T18:37:12.789Z,15.85
2023-05-16T18:39:41.369Z,15.82
2023-05-16T18:42:08.634Z,15.81
2023-05-16T18:44:36.726Z,15.78
2023-05-16T18:47:03.844Z,15.76
2023-05-16T18:53:47.338Z,15.70
2023-05-16T19:00:47.663Z,15.64
2023-05-16T19:11:14.546Z,15.56
2023-05-16T19:14:39.779Z,15.55
2023-05-16T19:17:06.888Z,15.56
2023-05-16T19:23:31.480Z,15.54
2023-05-16T19:26:24.561Z,15.55
2023-05-16T19:29:12.364Z,15.53
2023-05-16T19:31:50.685Z,15.49
2023-05-16T19:34:20.126Z,15.47
2023-05-16T19:36:48.064Z,15.47
2023-05-16T19:39:18.495Z,15.45
2023-05-16T19:42:29.749Z,15.41
2023-05-16T19:48:48.343Z,15.34
2023-05-16T19:53:17.216Z,15.32
2023-05-16T19:55:41.680Z,15.34
2023-05-16T19:58:08.736Z,15.33
2023-05-16T20:00:35.772Z,15.34
2023-05-16T20:03:02.979Z,15.35
2023-05-16T20:06:03.857Z,15.34
2023-05-16T20:09:42.163Z,15.32
2023-05-16T20:13:10.957Z,15.27
2023-05-16T20:34:07.414Z,15.15
2023-05-16T20:40:00.110Z,15.17
2023-05-16T20:42:42.248Z,15.15
2023-05-16T20:45:09.889Z,15.13
2023-05-16T20:47:38.183Z,15.10
2023-05-16T20:50:10.096Z,15.09
2023-05-16T20:52:37.213Z,15.07
2023-05-16T20:55:04.727Z,15.07
2023-05-16T20:57:31.774Z,15.06
2023-05-16T20:59:59.055Z,15.03
2023-05-16T21:02:26.108Z,15.04
2023-05-16T21:04:53.270Z,15.02
2023-05-16T21:07:21.707Z,14.99
2023-05-16T21:09:48.776Z,14.96
2023-05-16T21:12:15.844Z,14.94
2023-05-16T21:14:43.802Z,14.94
2023-05-16T21:17:10.859Z,14.93
2023-05-16T21:19:38.513Z,14.90
2023-05-16T21:22:05.559Z,14.87
2023-05-16T21:24:35.251Z,14.86
2023-05-16T21:27:03.766Z,14.87
2023-05-16T21:29:30.810Z,14.89
2023-05-16T21:31:58.329Z,14.88
2023-05-16T21:34:25.519Z,14.87
2023-05-16T21:36:53.440Z,14.88
2023-05-16T21:39:20.509Z,14.87
2023-05-16T21:41:47.629Z,14.88
2023-05-16T21:44:16.814Z,14.85
2023-05-16T21:46:44.452Z,14.81
2023-05-16T21:49:11.597Z,14.80
2023-05-16T21:51:39.038Z,14.80
2023-05-16T21:54:06.231Z,14.80
2023-05-16T21:56:33.283Z,14.81
2023-05-16T21:59:00.711Z,14.82
2023-05-16T22:01:29.023Z,14.82
2023-05-16T22:03:57.112Z,14.78
2023-05-16T22:06:27.493Z,14.72
2023-05-16T22:08:54.729Z,14.67
2023-05-16T22:11:21.966Z,14.61
2023-05-16T22:13:50.574Z,14.60
2023-05-16T22:16:18.076Z,14.61
2023-05-16T22:18:45.451Z,14.63
2023-05-16T22:21:12.823Z,14.65
2023-05-16T22:23:40.074Z,14.65
2023-05-16T22:26:07.219Z,14.67
2023-05-16T22:28:34.187Z,14.66
2023-05-16T22:31:01.325Z,14.64
2023-05-16T22:33:28.499Z,14.65
2023-05-16T22:35:55.784Z,14.66
2023-05-16T22:38:22.737Z,14.66
2023-05-16T22:40:49.754Z,14.64
2023-05-16T22:43:16.815Z,14.61
2023-05-16T22:45:43.856Z,14.55
2023-05-16T22:48:10.960Z,14.49
2023-05-16T22:50:38.122Z,14.48
2023-05-16T22:53:05.157Z,14.46
2023-05-16T22:55:33.538Z,14.43
2023-05-16T22:58:00.652Z,14.42
2023-05-16T23:00:27.760Z,14.42
2023-05-16T23:02:54.860Z,14.38
2023-05-16T23:05:22.049Z,14.35
2023-05-16T23:07:49.083Z,14.33
2023-05-16T23:10:16.206Z,14.31
2023-05-16T23:12:43.444Z,14.27
2023-05-16T23:15:11.002Z,14.26
2023-05-16T23:17:38.312Z,14.27
2023-05-16T23:20:07.093Z,14.27
2023-05-16T23:22:34.175Z,14.25
2023-05-16T23:25:01.237Z,14.20
2023-05-16T23:27:28.387Z,14.13
2023-05-16T23:29:55.418Z,14.04
2023-05-16T23:32:23.086Z,13.98
2023-05-16T23:34:50.048Z,13.96
2023-05-16T23:37:17.002Z,13.90
2023-05-16T23:39:43.989Z,13.82
2023-05-16T23:42:11.103Z,13.78
2023-05-16T23:44:41.417Z,13.76
2023-05-16T23:47:08.566Z,13.74
2023-05-16T23:49:35.669Z,13.72
2023-05-16T23:52:05.536Z,13.68
2023-05-16T23:54:33.822Z,13.64
2023-05-16T23:57:00.929Z,13.57
2023-05-16T23:59:28.066Z,13.50
